createdAt,value
2018-02-07T00:00:08.494Z,44.23
2018-02-07T00:02:37.079Z,59.03
2018-02-07T00:05:05.350Z,52.13
2018-02-07T00:07:33.835Z,39.60
2018-02-07T00:10:02.352Z,37.23
2018-02-07T00:12:30.899Z,37.53
2018-02-07T00:14:59.690Z,30.93
2018-02-07T00:17:27.999Z,34.93
2018-02-07T00:19:56.856Z,40.23
2018-02-07T00:22:25.330Z,39.17
2018-02-07T00:24:53.550Z,38.97
2018-02-07T00:27:22.086Z,38.00
2018-02-07T00:29:50.979Z,42.07
2018-02-07T00:32:19.662Z,38.47
2018-02-07T00:34:48.248Z,40.67
2018-02-07T00:37:16.728Z,33.70
2018-02-07T00:39:45.514Z,42.00
2018-02-07T00:42:14.198Z,36.67
2018-02-07T00:44:42.802Z,33.10
2018-02-07T00:47:11.366Z,46.63
2018-02-07T00:49:39.847Z,45.77
2018-02-07T00:52:08.243Z,45.23
2018-02-07T00:54:36.907Z,41.40
2018-02-07T00:57:05.400Z,38.70
2018-02-07T00:59:33.788Z,36.77
2018-02-07T01:02:02.453Z,44.90
2018-02-07T01:04:31.039Z,38.37
2018-02-07T01:06:59.522Z,33.07
2018-02-07T01:09:27.889Z,40.40
2018-02-07T01:11:56.578Z,40.53
2018-02-07T01:14:24.971Z,36.23
2018-02-07T01:16:53.442Z,36.67
2018-02-07T01:19:22.225Z,38.20
2018-02-07T01:21:50.891Z,41.03
2018-02-07T01:24:19.598Z,32.37
2018-02-07T01:26:48.282Z,46.43
2018-02-07T01:29:16.558Z,36.30
2018-02-07T01:31:45.324Z,54.00
2018-02-07T01:34:13.466Z,67.17
2018-02-07T01:36:42.111Z,58.30
2018-02-07T01:39:10.674Z,51.97
2018-02-07T01:41:39.161Z,92.67
2018-02-07T01:44:07.641Z,55.13
2018-02-07T01:46:36.033Z,54.70
2018-02-07T01:49:04.910Z,54.53
2018-02-07T01:51:33.389Z,66.97
2018-02-07T01:54:01.678Z,76.17
2018-02-07T01:56:30.252Z,72.03
2018-02-07T01:58:58.714Z,60.10
2018-02-07T02:01:27.321Z,42.40
2018-02-07T02:03:55.793Z,43.23
2018-02-07T02:06:23.997Z,37.90
2018-02-07T02:08:52.346Z,43.13
2018-02-07T02:11:20.827Z,41.57
2018-02-07T02:13:49.409Z,26.13
2018-02-07T02:16:17.889Z,30.57
2018-02-07T02:18:46.270Z,28.57
2018-02-07T02:21:14.954Z,23.73
2018-02-07T02:23:43.416Z,28.63
2018-02-07T02:26:11.814Z,30.17
2018-02-07T02:28:40.398Z,28.97
2018-02-07T02:31:08.685Z,22.70
2018-02-07T02:33:36.951Z,24.17
2018-02-07T02:36:17.453Z,28.67
2018-02-07T02:38:45.791Z,26.20
2018-02-07T02:41:14.675Z,22.10
2018-02-07T02:43:42.843Z,30.20
2018-02-07T02:46:11.336Z,32.60
2018-02-07T02:48:39.914Z,45.53
2018-02-07T02:51:08.906Z,31.33
2018-02-07T02:53:37.570Z,28.57
2018-02-07T02:56:06.070Z,28.67
2018-02-07T02:58:34.655Z,27.40
2018-02-07T03:01:03.018Z,34.87
2018-02-07T03:03:31.413Z,25.50
2018-02-07T03:06:00.194Z,36.00
2018-02-07T03:08:28.678Z,49.83
2018-02-07T03:10:56.955Z,52.00
2018-02-07T03:13:25.349Z,44.40
2018-02-07T03:15:53.810Z,32.00
2018-02-07T03:18:21.986Z,42.37
2018-02-07T03:20:50.561Z,50.30
2018-02-07T03:23:19.047Z,42.67
2018-02-07T03:25:47.338Z,46.70
2018-02-07T03:28:15.702Z,44.77
2018-02-07T03:30:44.183Z,44.10
2018-02-07T03:33:12.557Z,63.33
2018-02-07T03:35:41.255Z,56.27
2018-02-07T03:38:09.936Z,50.57
2018-02-07T03:40:38.506Z,41.93
2018-02-07T03:43:07.245Z,46.87
2018-02-07T03:45:35.881Z,37.90
2018-02-07T03:48:04.678Z,41.27
2018-02-07T03:50:32.841Z,71.33
2018-02-07T03:53:01.633Z,64.00
2018-02-07T03:55:30.526Z,80.13
2018-02-07T03:57:58.907Z,67.23
2018-02-07T04:00:27.181Z,47.03
2018-02-07T04:02:55.454Z,53.33
2018-02-07T04:05:24.137Z,66.83
2018-02-07T04:07:52.722Z,65.17
2018-02-07T04:10:21.254Z,64.73
2018-02-07T04:12:49.578Z,48.57
2018-02-07T04:15:18.146Z,57.77
2018-02-07T04:17:46.543Z,53.67
2018-02-07T04:20:15.130Z,45.83
2018-02-07T04:22:43.302Z,54.57
2018-02-07T04:25:11.674Z,46.20
2018-02-07T04:27:40.114Z,45.93
2018-02-07T04:30:08.640Z,41.93
2018-02-07T04:32:37.322Z,60.23
2018-02-07T04:35:05.711Z,54.60
2018-02-07T04:37:34.132Z,76.53
2018-02-07T04:40:02.453Z,65.20
2018-02-07T04:42:30.934Z,53.13
2018-02-07T04:44:59.421Z,78.27
2018-02-07T04:47:28.082Z,73.27
2018-02-07T04:49:56.286Z,104.53
2018-02-07T04:52:24.962Z,87.33
2018-02-07T04:54:53.555Z,105.70
2018-02-07T04:57:21.925Z,74.70
2018-02-07T04:59:50.402Z,97.67
2018-02-07T05:02:18.779Z,137.70
2018-02-07T05:04:47.173Z,271.60
2018-02-07T05:07:15.450Z,88.07
2018-02-07T05:09:43.895Z,112.60
2018-02-07T05:12:12.190Z,66.77
2018-02-07T05:14:40.832Z,77.63
2018-02-07T05:17:09.359Z,66.47
2018-02-07T05:19:37.839Z,91.47
2018-02-07T05:22:06.133Z,84.67
2018-02-07T05:24:34.388Z,97.97
2018-02-07T05:27:03.012Z,76.23
2018-02-07T05:29:31.554Z,55.97
2018-02-07T05:32:00.139Z,64.77
2018-02-07T05:34:28.905Z,46.93
2018-02-07T05:36:57.402Z,55.40
2018-02-07T05:39:26.090Z,53.10
2018-02-07T05:41:54.551Z,76.07
2018-02-07T05:44:23.153Z,71.47
2018-02-07T05:46:51.838Z,60.43
2018-02-07T05:49:20.300Z,59.00
2018-02-07T05:51:48.800Z,62.47
2018-02-07T05:54:17.077Z,125.60
2018-02-07T05:56:45.759Z,100.30
2018-02-07T05:59:14.031Z,111.83
2018-02-07T06:01:42.530Z,108.17
2018-02-07T06:04:10.709Z,152.90
2018-02-07T06:06:38.964Z,122.67
2018-02-07T06:09:07.528Z,86.93
2018-02-07T06:11:35.927Z,86.97
2018-02-07T06:14:04.324Z,72.70
2018-02-07T06:16:33.090Z,63.70
2018-02-07T06:19:01.878Z,63.73
2018-02-07T06:21:30.199Z,67.03
2018-02-07T06:23:59.031Z,77.13
2018-02-07T06:26:27.531Z,101.13
2018-02-07T06:28:56.110Z,86.00
2018-02-07T06:31:24.378Z,119.67
2018-02-07T06:33:52.873Z,113.30
2018-02-07T06:36:21.345Z,144.67
2018-02-07T06:38:49.947Z,173.30
2018-02-07T06:41:18.309Z,142.63
2018-02-07T06:43:46.682Z,130.93
2018-02-07T06:46:14.961Z,112.00
2018-02-07T06:48:43.745Z,128.13
2018-02-07T06:51:12.311Z,105.83
2018-02-07T06:53:40.917Z,97.73
2018-02-07T06:56:09.390Z,71.20
2018-02-07T06:58:38.386Z,51.67
2018-02-07T07:01:06.570Z,58.80
2018-02-07T07:03:34.835Z,69.33
2018-02-07T07:06:03.518Z,58.83
2018-02-07T07:08:31.902Z,48.20
2018-02-07T07:11:00.481Z,64.60
2018-02-07T07:13:29.062Z,58.03
2018-02-07T07:15:57.347Z,56.20
2018-02-07T07:18:25.722Z,66.73
2018-02-07T07:20:54.076Z,257.30
2018-02-07T07:23:22.577Z,137.47
2018-02-07T07:25:51.571Z,106.23
2018-02-07T07:28:19.993Z,80.90
2018-02-07T07:30:48.326Z,77.03
2018-02-07T07:33:16.298Z,66.17
2018-02-07T07:35:44.274Z,52.23
2018-02-07T07:38:12.327Z,47.27
2018-02-07T07:40:40.304Z,39.40
2018-02-07T07:43:08.320Z,45.10
2018-02-07T07:45:36.302Z,32.83
2018-02-07T07:48:04.249Z,29.03
2018-02-07T07:50:32.259Z,39.33
2018-02-07T07:53:00.243Z,37.67
2018-02-07T07:55:28.246Z,36.73
2018-02-07T07:57:56.207Z,40.27
2018-02-07T08:00:24.567Z,37.63
2018-02-07T08:02:52.575Z,64.73
2018-02-07T08:05:20.482Z,48.30
2018-02-07T08:07:48.466Z,54.27
2018-02-07T08:10:16.468Z,39.67
2018-02-07T08:12:45.106Z,64.23
2018-02-07T08:15:13.093Z,50.90
2018-02-07T08:17:41.050Z,61.43
2018-02-07T08:20:09.053Z,58.47
2018-02-07T08:22:37.140Z,52.90
2018-02-07T08:25:05.218Z,141.83
2018-02-07T08:27:33.143Z,89.53
2018-02-07T08:30:01.231Z,77.83
2018-02-07T08:32:29.226Z,139.37
2018-02-07T08:34:57.238Z,92.67
2018-02-07T08:37:25.238Z,66.00
2018-02-07T08:39:53.242Z,61.63
2018-02-07T08:42:21.194Z,67.63
2018-02-07T08:44:49.202Z,49.07
2018-02-07T08:47:17.267Z,77.00
2018-02-07T08:49:45.253Z,52.03
2018-02-07T08:52:13.185Z,19.50
2018-02-07T08:54:41.050Z,30.37
2018-02-07T08:57:09.062Z,39.57
2018-02-07T08:59:37.027Z,28.57
2018-02-07T09:02:05.412Z,32.97
2018-02-07T09:04:33.431Z,38.53
2018-02-07T09:07:01.450Z,30.60
2018-02-07T09:09:29.519Z,56.47
2018-02-07T09:11:57.533Z,57.80
2018-02-07T09:14:25.493Z,41.87
2018-02-07T09:16:53.494Z,70.40
2018-02-07T09:19:21.493Z,53.97
2018-02-07T09:21:49.771Z,55.83
2018-02-07T09:24:18.156Z,106.63
2018-02-07T09:26:47.156Z,43.40
2018-02-07T09:29:15.731Z,137.03
2018-02-07T09:31:44.305Z,82.50
2018-02-07T09:34:12.871Z,97.90
2018-02-07T09:36:41.473Z,178.00
2018-02-07T09:39:10.053Z,79.37
2018-02-07T09:41:38.722Z,32.17
2018-02-07T09:44:06.918Z,61.93
2018-02-07T09:46:35.398Z,31.80
2018-02-07T09:49:03.778Z,31.10
2018-02-07T09:51:32.254Z,80.83
2018-02-07T09:54:01.045Z,35.13
2018-02-07T09:56:29.502Z,77.23
2018-02-07T09:58:57.906Z,47.87
2018-02-07T10:01:26.488Z,40.93
2018-02-07T10:03:55.242Z,21.33
2018-02-07T10:06:24.038Z,26.27
2018-02-07T10:08:52.642Z,42.63
2018-02-07T10:11:21.018Z,62.97
2018-02-07T10:13:49.606Z,25.43
2018-02-07T10:16:18.190Z,34.83
2018-02-07T10:18:46.562Z,30.77
2018-02-07T10:21:14.838Z,44.87
2018-02-07T10:23:43.425Z,26.30
2018-02-07T10:26:11.595Z,30.13
2018-02-07T10:28:39.974Z,28.00
2018-02-07T10:31:08.454Z,25.00
2018-02-07T10:33:37.267Z,32.67
2018-02-07T10:36:05.619Z,20.20
2018-02-07T10:38:34.002Z,16.67
2018-02-07T10:41:02.582Z,20.70
2018-02-07T10:43:31.290Z,18.57
2018-02-07T10:46:00.155Z,23.93
2018-02-07T10:48:28.733Z,21.10
2018-02-07T10:50:57.197Z,19.40
2018-02-07T10:53:25.496Z,42.70
2018-02-07T10:55:53.770Z,40.87
2018-02-07T10:58:22.741Z,39.00
2018-02-07T11:00:51.331Z,26.70
2018-02-07T11:03:19.717Z,27.27
2018-02-07T11:05:48.713Z,53.90
2018-02-07T11:08:17.127Z,31.30
2018-02-07T11:10:45.476Z,21.50
2018-02-07T11:13:13.487Z,28.70
2018-02-07T11:15:41.440Z,34.73
2018-02-07T11:18:09.458Z,19.07
2018-02-07T11:20:37.508Z,29.57
2018-02-07T11:23:05.545Z,42.10
2018-02-07T11:25:33.535Z,40.73
2018-02-07T11:28:01.564Z,36.03
2018-02-07T11:30:29.499Z,28.90
2018-02-07T11:32:57.475Z,18.73
2018-02-07T11:35:25.478Z,12.87
2018-02-07T11:37:53.473Z,16.33
2018-02-07T11:40:21.441Z,40.33
2018-02-07T11:42:49.398Z,17.23
2018-02-07T11:45:17.355Z,17.63
2018-02-07T11:47:45.818Z,27.90
2018-02-07T11:50:14.197Z,27.10
2018-02-07T11:52:42.473Z,19.67
2018-02-07T11:55:10.855Z,19.17
2018-02-07T11:57:38.800Z,17.43
2018-02-07T12:00:06.771Z,8.47
2018-02-07T12:02:34.730Z,13.57
2018-02-07T12:05:02.689Z,132.63
2018-02-07T12:07:30.998Z,17.43
2018-02-07T12:09:58.961Z,34.73
2018-02-07T12:12:27.018Z,43.30
2018-02-07T12:14:55.073Z,87.63
2018-02-07T12:17:23.134Z,13.27
2018-02-07T12:19:51.632Z,16.23
2018-02-07T12:22:20.514Z,27.97
2018-02-07T12:24:48.538Z,33.53
2018-02-07T12:27:16.486Z,26.77
2018-02-07T12:29:44.513Z,19.30
2018-02-07T12:32:12.473Z,37.57
2018-02-07T12:34:41.530Z,31.17
2018-02-07T12:37:09.550Z,23.40
2018-02-07T12:39:37.559Z,7.20
2018-02-07T12:42:05.555Z,67.97
2018-02-07T12:44:33.596Z,7.83
2018-02-07T12:47:01.575Z,26.07
2018-02-07T12:49:29.575Z,24.73
2018-02-07T12:51:58.678Z,20.57
2018-02-07T12:54:27.681Z,26.37
2018-02-07T12:56:55.651Z,17.60
2018-02-07T12:59:23.618Z,36.63
2018-02-07T13:01:51.643Z,31.10
2018-02-07T13:04:19.756Z,23.20
2018-02-07T13:06:48.945Z,12.50
2018-02-07T13:09:17.378Z,11.27
2018-02-07T13:11:45.291Z,23.47
2018-02-07T13:14:13.251Z,15.97
2018-02-07T13:16:41.191Z,30.40
2018-02-07T13:19:09.163Z,16.27
2018-02-07T13:21:37.117Z,7.93
2018-02-07T13:24:05.127Z,17.33
2018-02-07T13:26:33.571Z,19.87
2018-02-07T13:29:02.191Z,9.47
2018-02-07T13:31:30.175Z,25.33
2018-02-07T13:33:58.705Z,21.83
2018-02-07T13:36:26.974Z,31.00
2018-02-07T13:38:55.455Z,11.43
2018-02-07T13:41:23.830Z,49.27
2018-02-07T13:43:52.427Z,48.50
2018-02-07T13:46:20.963Z,37.87
2018-02-07T13:48:49.296Z,57.90
2018-02-07T13:51:17.835Z,127.57
2018-02-07T13:53:46.338Z,84.00
2018-02-07T13:56:18.380Z,55.30
2018-02-07T13:58:48.159Z,39.37
2018-02-07T14:01:16.137Z,55.57
2018-02-07T14:03:44.128Z,29.30
2018-02-07T14:06:12.057Z,32.90
2018-02-07T14:08:40.042Z,30.10
2018-02-07T14:11:08.351Z,30.03
2018-02-07T14:13:36.350Z,92.93
2018-02-07T14:16:04.361Z,35.47
2018-02-07T14:18:32.344Z,35.87
2018-02-07T14:21:00.439Z,30.27
2018-02-07T14:23:28.410Z,80.60
2018-02-07T14:25:56.363Z,65.77
2018-02-07T14:28:24.298Z,26.93
2018-02-07T14:30:52.254Z,48.63
2018-02-07T14:33:20.205Z,13.20
2018-02-07T14:35:48.171Z,53.67
2018-02-07T14:38:16.131Z,28.63
2018-02-07T14:40:44.134Z,77.83
2018-02-07T14:43:12.109Z,43.43
2018-02-07T14:45:40.101Z,31.93
2018-02-07T14:48:08.066Z,14.73
2018-02-07T14:50:36.030Z,60.00
2018-02-07T14:53:04.082Z,32.97
2018-02-07T14:55:32.059Z,33.73
2018-02-07T14:58:00.054Z,24.33
2018-02-07T15:00:27.963Z,23.43
2018-02-07T15:02:55.931Z,35.37
2018-02-07T15:05:23.917Z,75.87
2018-02-07T15:07:51.859Z,27.10
2018-02-07T15:10:19.865Z,9.57
2018-02-07T15:12:48.074Z,17.17
2018-02-07T15:15:16.048Z,33.50
2018-02-07T15:17:44.010Z,12.17
2018-02-07T15:20:12.047Z,23.70
2018-02-07T15:22:40.066Z,27.90
2018-02-07T15:25:08.073Z,24.63
2018-02-07T15:27:36.118Z,18.50
2018-02-07T15:30:04.159Z,15.37
2018-02-07T15:32:32.187Z,22.23
2018-02-07T15:35:00.164Z,42.00
2018-02-07T15:37:28.102Z,78.57
2018-02-07T15:39:56.666Z,60.47
2018-02-07T15:42:24.631Z,53.60
2018-02-07T15:44:52.556Z,70.67
2018-02-07T15:47:20.574Z,34.33
2018-02-07T15:49:48.490Z,42.13
2018-02-07T15:52:16.478Z,47.20
2018-02-07T15:54:44.446Z,42.13
2018-02-07T15:57:12.392Z,36.03
2018-02-07T15:59:40.918Z,40.60
2018-02-07T16:02:08.967Z,53.00
2018-02-07T16:04:37.007Z,26.30
2018-02-07T16:07:05.027Z,30.63
2018-02-07T16:09:33.033Z,57.57
2018-02-07T16:12:01.106Z,34.30
2018-02-07T16:14:29.551Z,16.97
2018-02-07T16:16:57.499Z,21.50
2018-02-07T16:19:25.568Z,27.67
2018-02-07T16:21:53.490Z,35.73
2018-02-07T16:24:21.557Z,46.77
2018-02-07T16:26:49.509Z,100.13
2018-02-07T16:29:17.529Z,1337.40
2018-02-07T16:31:45.490Z,1227.83
2018-02-07T16:34:13.449Z,375.43
2018-02-07T16:36:41.473Z,164.73
2018-02-07T16:39:09.425Z,138.97
2018-02-07T16:41:37.913Z,97.03
2018-02-07T16:44:06.813Z,54.03
2018-02-07T16:46:35.183Z,47.00
2018-02-07T16:49:03.870Z,68.77
2018-02-07T16:51:32.250Z,54.37
2018-02-07T16:54:00.730Z,83.73
2018-02-07T16:56:29.210Z,68.03
2018-02-07T16:58:57.524Z,65.37
2018-02-07T17:01:25.570Z,45.73
2018-02-07T17:03:53.527Z,49.27
2018-02-07T17:06:21.511Z,63.37
2018-02-07T17:08:49.459Z,50.27
2018-02-07T17:11:17.451Z,54.00
2018-02-07T17:13:45.475Z,51.40
2018-02-07T17:16:13.826Z,74.20
2018-02-07T17:18:41.777Z,39.83
2018-02-07T17:21:09.896Z,33.03
2018-02-07T17:23:38.498Z,42.57
2018-02-07T17:26:07.083Z,42.03
2018-02-07T17:28:35.571Z,34.30
2018-02-07T17:31:04.021Z,29.77
2018-02-07T17:33:32.027Z,44.03
2018-02-07T17:36:00.049Z,80.37
2018-02-07T17:38:28.131Z,75.37
2018-02-07T17:40:56.090Z,104.67
2018-02-07T17:43:24.090Z,99.50
2018-02-07T17:45:52.678Z,105.13
2018-02-07T17:48:20.646Z,96.17
2018-02-07T17:50:48.714Z,110.13
2018-02-07T17:53:16.667Z,103.13
2018-02-07T17:55:44.618Z,97.63
2018-02-07T17:58:12.598Z,140.00
2018-02-07T18:00:40.617Z,160.17
2018-02-07T18:03:08.614Z,154.27
2018-02-07T18:05:36.638Z,173.43
2018-02-07T18:08:04.681Z,149.10
2018-02-07T18:10:32.683Z,166.23
2018-02-07T18:13:00.683Z,152.03
2018-02-07T18:15:28.697Z,124.27
2018-02-07T18:17:56.839Z,161.67
2018-02-07T18:20:24.855Z,127.37
2018-02-07T18:22:52.822Z,110.63
2018-02-07T18:25:20.781Z,159.83
2018-02-07T18:27:48.807Z,150.23
2018-02-07T18:30:16.789Z,147.63
2018-02-07T18:32:44.774Z,124.60
2018-02-07T18:35:12.754Z,69.80
2018-02-07T18:37:40.760Z,82.70
2018-02-07T18:40:08.671Z,89.23
2018-02-07T18:42:36.673Z,113.00
2018-02-07T18:45:04.700Z,105.17
2018-02-07T18:47:32.767Z,105.70
2018-02-07T18:50:00.775Z,130.13
2018-02-07T18:52:28.774Z,164.97
2018-02-07T18:54:57.330Z,197.03
2018-02-07T18:57:25.988Z,177.73
2018-02-07T18:59:54.390Z,166.70
2018-02-07T19:02:22.871Z,134.00
2018-02-07T19:04:51.259Z,121.63
2018-02-07T19:07:19.830Z,106.00
2018-02-07T19:09:48.310Z,122.10
2018-02-07T19:12:16.890Z,95.50
2018-02-07T19:14:45.492Z,71.17
2018-02-07T19:17:13.489Z,68.30
2018-02-07T19:19:41.824Z,85.63
2018-02-07T19:22:09.731Z,73.23
2018-02-07T19:24:37.689Z,69.27
2018-02-07T19:27:05.627Z,55.63
2018-02-07T19:29:33.596Z,53.30
2018-02-07T19:32:01.543Z,67.00
2018-02-07T19:34:29.611Z,53.70
2018-02-07T19:36:57.639Z,54.23
2018-02-07T19:39:25.617Z,62.07
2018-02-07T19:41:53.565Z,55.20
2018-02-07T19:44:21.618Z,88.87
2018-02-07T19:46:49.641Z,117.97
2018-02-07T19:49:17.598Z,91.73
2018-02-07T19:51:45.629Z,107.03
2018-02-07T19:54:13.624Z,132.53
2018-02-07T19:56:41.600Z,110.57
2018-02-07T19:59:09.618Z,116.13
2018-02-07T20:01:37.599Z,89.47
2018-02-07T20:04:05.517Z,112.33
2018-02-07T20:06:34.437Z,91.23
2018-02-07T20:09:02.427Z,87.07
2018-02-07T20:11:30.392Z,72.43
2018-02-07T20:13:58.454Z,96.67
2018-02-07T20:16:26.382Z,78.63
2018-02-07T20:18:54.342Z,86.47
2018-02-07T20:21:22.583Z,89.70
2018-02-07T20:23:50.528Z,92.23
2018-02-07T20:26:18.570Z,96.17
2018-02-07T20:28:46.578Z,97.23
2018-02-07T20:31:14.523Z,103.40
2018-02-07T20:33:42.517Z,116.17
2018-02-07T20:36:10.459Z,112.20
2018-02-07T20:38:38.443Z,99.53
2018-02-07T20:41:06.505Z,136.47
2018-02-07T20:43:34.495Z,133.90
2018-02-07T20:46:02.460Z,120.23
2018-02-07T20:48:30.474Z,134.13
2018-02-07T20:50:58.467Z,105.27
2018-02-07T20:53:26.466Z,97.10
2018-02-07T20:55:54.474Z,99.50
2018-02-07T20:58:22.405Z,107.40
2018-02-07T21:00:50.389Z,85.00
2018-02-07T21:03:18.337Z,82.83
2018-02-07T21:05:46.542Z,89.20
2018-02-07T21:08:14.543Z,85.43
2018-02-07T21:10:42.476Z,81.13
2018-02-07T21:13:10.411Z,95.63
2018-02-07T21:15:38.375Z,118.07
2018-02-07T21:18:06.353Z,92.97
2018-02-07T21:20:34.405Z,106.93
2018-02-07T21:23:02.819Z,91.93
2018-02-07T21:25:30.783Z,68.53
2018-02-07T21:27:58.762Z,62.13
2018-02-07T21:30:26.711Z,60.30
2018-02-07T21:32:54.810Z,82.57
2018-02-07T21:35:22.766Z,68.27
2018-02-07T21:37:50.746Z,68.47
2018-02-07T21:40:18.713Z,73.07
2018-02-07T21:42:46.708Z,65.67
2018-02-07T21:45:14.628Z,62.60
2018-02-07T21:47:42.621Z,65.53
2018-02-07T21:50:10.693Z,58.27
2018-02-07T21:52:38.662Z,57.00
2018-02-07T21:55:06.668Z,67.40
2018-02-07T21:57:34.616Z,66.13
2018-02-07T22:00:02.719Z,58.00
2018-02-07T22:02:31.019Z,59.97
2018-02-07T22:04:59.494Z,53.43
2018-02-07T22:07:27.698Z,79.73
2018-02-07T22:09:56.251Z,66.73
2018-02-07T22:12:24.629Z,66.43
2018-02-07T22:14:52.855Z,56.73
2018-02-07T22:17:21.697Z,64.97
2018-02-07T22:19:50.583Z,65.70
2018-02-07T22:22:18.898Z,76.10
2018-02-07T22:24:47.645Z,58.20
2018-02-07T22:27:16.004Z,57.63
2018-02-07T22:29:44.653Z,49.20
2018-02-07T22:32:13.086Z,49.53
2018-02-07T22:34:41.774Z,47.40
2018-02-07T22:37:10.046Z,48.77
2018-02-07T22:39:38.535Z,56.93
2018-02-07T22:42:07.010Z,58.57
2018-02-07T22:44:35.494Z,47.80
2018-02-07T22:47:03.865Z,50.40
2018-02-07T22:49:32.250Z,46.50
2018-02-07T22:52:00.829Z,49.53
2018-02-07T22:54:29.191Z,42.83
2018-02-07T22:56:57.587Z,46.77
2018-02-07T22:59:26.066Z,54.20
2018-02-07T23:01:54.532Z,50.87
2018-02-07T23:04:23.130Z,92.20
2018-02-07T23:06:51.709Z,65.97
2018-02-07T23:09:19.985Z,57.93
2018-02-07T23:11:48.674Z,63.73
2018-02-07T23:14:17.046Z,65.47
2018-02-07T23:16:45.640Z,60.63
2018-02-07T23:19:14.319Z,60.00
2018-02-07T23:21:42.799Z,59.80
2018-02-07T23:24:11.497Z,62.37
2018-02-07T23:26:39.961Z,67.40
2018-02-07T23:29:08.662Z,67.40
2018-02-07T23:31:37.438Z,70.37
2018-02-07T23:34:05.794Z,66.10
2018-02-07T23:36:34.294Z,66.33
2018-02-07T23:39:02.878Z,55.37
2018-02-07T23:41:31.161Z,59.67
2018-02-07T23:43:59.425Z,48.87
2018-02-07T23:46:27.705Z,46.23
2018-02-07T23:48:56.086Z,58.40
2018-02-07T23:51:24.574Z,42.07
2018-02-07T23:53:53.152Z,39.23
2018-02-07T23:56:21.530Z,44.90
2018-02-07T23:58:50.087Z,47.47
